Time;durP1;ratioP1;P1;durP2;ratioP2;P2;SDS_P1;SDS_P2;PMS_P1;PMS_P2;Temp;Humidity;BMP_temperature;BMP_pressure;BME280_temperature;BME280_humidity;BME280_pressure;Samples;Min_cycle;Max_cycle;Signal;HPM_P1;HPM_P2
2022/05/15 00:00:44;;;;;;;3.20;1.67;;;13.10;99.90;;;;;;5070746;28;20240;-81
2022/05/15 00:03:20;;;;;;;3.33;1.70;;;13.10;99.90;;;;;;5070313;28;20438;-81
2022/05/15 00:05:54;;;;;;;3.97;1.73;;;13.10;99.90;;;;;;5070228;28;20171;-81
2022/05/15 00:08:20;;;;;;;3.10;1.67;;;13.00;99.90;;;;;;5070196;28;21195;-81
2022/05/15 00:10:46;;;;;;;3.23;1.37;;;13.00;99.90;;;;;;5070223;28;20457;-81
2022/05/15 00:13:12;;;;;;;4.13;1.60;;;12.90;99.90;;;;;;5035308;28;20441;-81
2022/05/15 00:15:39;;;;;;;3.47;2.03;;;12.90;99.90;;;;;;5070194;28;20413;-81
2022/05/15 00:18:05;;;;;;;2.20;1.70;;;12.80;99.90;;;;;;5051845;28;20413;-81
2022/05/15 00:20:31;;;;;;;2.23;1.30;;;12.80;99.90;;;;;;5069944;28;20425;-81
2022/05/15 00:22:57;;;;;;;3.40;1.50;;;12.80;99.90;;;;;;5069906;28;20471;-81
2022/05/15 00:25:23;;;;;;;1.97;1.57;;;12.80;99.90;;;;;;5070107;28;20836;-81
2022/05/15 00:27:48;;;;;;;1.83;1.10;;;12.80;99.90;;;;;;5051525;28;20679;-81
2022/05/15 00:30:15;;;;;;;2.37;1.10;;;12.50;99.90;;;;;;5051551;28;20194;-81
2022/05/15 00:32:41;;;;;;;1.50;1.40;;;12.60;99.90;;;;;;5034571;28;20302;-81
2022/05/15 00:35:08;;;;;;;3.20;1.33;;;12.60;99.90;;;;;;5069505;28;20499;-81
2022/05/15 00:37:33;;;;;;;2.20;1.80;;;12.50;99.90;;;;;;5069476;28;20265;-81
2022/05/15 00:39:59;;;;;;;8.00;1.93;;;12.40;99.90;;;;;;5051481;28;20512;-81
2022/05/15 00:42:26;;;;;;;3.67;1.67;;;12.50;99.90;;;;;;5051162;28;20198;-82
2022/05/15 00:44:52;;;;;;;2.20;1.63;;;12.40;99.90;;;;;;5052214;28;20432;-81
2022/05/15 00:47:18;;;;;;;2.40;1.60;;;12.40;99.90;;;;;;5051615;28;20427;-81
2022/05/15 00:49:45;;;;;;;4.87;1.60;;;12.40;99.90;;;;;;5069723;28;20423;-81
2022/05/15 00:52:16;;;;;;;2.90;1.47;;;12.50;99.90;;;;;;5051328;28;20710;-81
2022/05/15 00:54:52;;;;;;;1.90;1.27;;;12.40;99.90;;;;;;5051488;28;20451;-82
2022/05/15 00:57:29;;;;;;;3.90;1.50;;;12.40;99.90;;;;;;5069381;28;20412;-81
2022/05/15 01:00:02;;;;;;;1.37;1.00;;;12.30;99.90;;;;;;5051490;28;20775;-81
2022/05/15 01:02:31;;;;;;;2.80;1.30;;;12.30;99.90;;;;;;5051144;28;20493;-81
2022/05/15 01:04:56;;;;;;;3.30;1.20;;;12.30;99.90;;;;;;5069354;28;20420;-81
2022/05/15 01:07:22;;;;;;;3.07;1.57;;;12.30;99.90;;;;;;5051242;28;20467;-82
2022/05/15 01:09:50;;;;;;;1.43;1.33;;;12.20;99.90;;;;;;5069296;28;20174;-81
2022/05/15 01:12:16;;;;;;;4.20;1.33;;;12.20;99.90;;;;;;5069325;28;20263;-81
2022/05/15 01:14:45;;;;;;;2.47;1.37;;;12.30;99.90;;;;;;5051051;28;20421;-82
2022/05/15 01:17:11;;;;;;;1.70;1.50;;;12.10;99.90;;;;;;5051416;28;20421;-81
2022/05/15 01:19:40;;;;;;;1.93;1.20;;;12.10;99.90;;;;;;5051163;28;20423;-81
2022/05/15 01:22:08;;;;;;;2.40;1.50;;;12.20;99.90;;;;;;5051561;28;20505;-80
2022/05/15 01:24:35;;;;;;;7.10;1.97;;;12.40;99.90;;;;;;5050903;28;20542;-81
2022/05/15 01:27:08;;;;;;;2.67;1.50;;;12.30;99.90;;;;;;5050852;28;20433;-81
2022/05/15 01:29:38;;;;;;;3.03;1.50;;;12.20;99.90;;;;;;5069472;28;20423;-81
2022/05/15 01:32:05;;;;;;;3.17;1.57;;;12.20;99.90;;;;;;5069188;28;20476;-80
2022/05/15 01:34:31;;;;;;;2.20;1.10;;;12.20;99.90;;;;;;5051477;28;20448;-81
2022/05/15 01:36:59;;;;;;;2.60;1.10;;;12.10;99.90;;;;;;5051618;28;20816;-81
2022/05/15 01:39:26;;;;;;;3.17;1.50;;;12.00;99.90;;;;;;5051754;28;20917;-81
2022/05/15 01:41:51;;;;;;;4.67;1.27;;;12.10;99.90;;;;;;5069628;28;20480;-81
2022/05/15 01:44:17;;;;;;;7.80;1.67;;;12.10;99.90;;;;;;5051558;28;20797;-81
2022/05/15 01:46:43;;;;;;;2.10;1.40;;;12.10;99.90;;;;;;5069485;28;20233;-81
2022/05/15 01:49:08;;;;;;;1.73;1.30;;;12.10;99.90;;;;;;5069126;28;20762;-81
2022/05/15 01:51:38;;;;;;;4.17;1.70;;;12.10;99.90;;;;;;5050829;28;20233;-80
2022/05/15 01:54:04;;;;;;;4.30;1.57;;;11.90;99.90;;;;;;5051101;28;20425;-80
2022/05/15 01:56:30;;;;;;;3.93;1.20;;;11.90;99.90;;;;;;5050829;28;20463;-81
2022/05/15 01:58:57;;;;;;;2.93;1.23;;;11.90;99.90;;;;;;5050957;28;20456;-81
2022/05/15 02:01:23;;;;;;;2.00;1.43;;;11.90;99.90;;;;;;5068914;28;20446;-81
2022/05/15 02:03:49;;;;;;;5.73;1.63;;;11.90;99.90;;;;;;5050745;28;20439;-80
2022/05/15 02:06:15;;;;;;;3.20;1.07;;;11.80;99.90;;;;;;5050477;28;20423;-81
2022/05/15 02:08:40;;;;;;;3.17;1.47;;;11.70;99.90;;;;;;5050598;28;20225;-81
2022/05/15 02:11:06;;;;;;;4.17;1.70;;;11.70;99.90;;;;;;5050342;28;20467;-80
2022/05/15 02:13:32;;;;;;;6.00;1.70;;;11.70;99.90;;;;;;5050530;28;20188;-80
2022/05/15 02:15:58;;;;;;;1.33;1.10;;;11.90;99.90;;;;;;5033644;28;20423;-81
2022/05/15 02:18:24;;;;;;;1.90;1.37;;;11.70;99.90;;;;;;5071355;28;20190;-81
2022/05/15 02:20:50;;;;;;;1.77;1.20;;;11.70;99.90;;;;;;5037536;28;20201;-81
2022/05/15 02:23:15;;;;;;;3.53;1.40;;;11.60;99.90;;;;;;5054042;28;20454;-81
2022/05/15 02:25:41;;;;;;;3.03;1.60;;;11.60;99.90;;;;;;5054210;28;20424;-82
2022/05/15 02:28:08;;;;;;;3.00;1.90;;;11.60;99.90;;;;;;5072271;28;20366;-81
2022/05/15 02:30:34;;;;;;;7.33;1.57;;;11.60;99.90;;;;;;5053935;28;20293;-80
2022/05/15 02:33:00;;;;;;;3.60;2.00;;;11.70;99.90;;;;;;5071734;28;20959;-81
2022/05/15 02:35:26;;;;;;;3.83;1.63;;;11.60;99.90;;;;;;5071868;28;20183;-81
2022/05/15 02:37:51;;;;;;;1.73;1.60;;;11.60;99.90;;;;;;5054172;28;20421;-81
2022/05/15 02:40:20;;;;;;;2.77;2.10;;;11.50;99.90;;;;;;5053996;28;20432;-80
2022/05/15 02:42:46;;;;;;;7.70;2.20;;;11.60;99.90;;;;;;5071448;28;20304;-81
2022/05/15 02:45:12;;;;;;;2.63;1.80;;;11.60;99.90;;;;;;5053984;28;20503;-81
2022/05/15 02:47:38;;;;;;;2.50;1.70;;;11.70;99.90;;;;;;5053560;28;20424;-81
2022/05/15 02:52:50;;;;;;;2.80;2.07;;;11.50;99.90;;;;;;5071888;28;20983;-80
2022/05/15 02:55:15;;;;;;;3.40;2.10;;;11.60;99.90;;;;;;5071445;28;20419;-81
2022/05/15 02:57:42;;;;;;;2.60;1.67;;;11.60;99.90;;;;;;5053378;28;20422;-80
2022/05/15 03:00:10;;;;;;;11.10;2.47;;;11.60;99.90;;;;;;5071258;28;20189;-81
2022/05/15 03:02:37;;;;;;;7.27;1.70;;;11.50;99.90;;;;;;5071083;28;20468;-81
2022/05/15 03:05:04;;;;;;;6.03;1.70;;;11.40;99.90;;;;;;5052884;28;20794;-80
2022/05/15 03:07:30;;;;;;;3.07;2.40;;;11.40;99.90;;;;;;5052736;28;20810;-81
2022/05/15 03:09:56;;;;;;;3.07;2.50;;;11.40;99.90;;;;;;5052892;28;20423;-80
2022/05/15 03:12:22;;;;;;;6.33;2.20;;;11.40;99.90;;;;;;5052628;28;20221;-80
2022/05/15 03:14:47;;;;;;;3.87;1.80;;;11.50;99.90;;;;;;5052831;28;20186;-81
2022/05/15 03:17:16;;;;;;;2.40;2.20;;;11.30;99.90;;;;;;5054018;28;20808;-81
2022/05/15 03:19:43;;;;;;;4.43;2.20;;;11.50;99.90;;;;;;5053314;28;20182;-81
2022/05/15 03:22:09;;;;;;;2.50;2.23;;;11.50;99.90;;;;;;5053088;28;20882;-81
2022/05/15 03:24:35;;;;;;;7.33;2.10;;;11.40;99.90;;;;;;5071053;28;20417;-81
2022/05/15 03:27:01;;;;;;;6.27;2.50;;;11.30;99.90;;;;;;5052843;28;20425;-81
2022/05/15 03:29:27;;;;;;;3.47;2.40;;;11.30;99.90;;;;;;5069799;28;20434;-81
2022/05/15 03:31:54;;;;;;;7.80;2.60;;;11.20;99.90;;;;;;5070680;28;20513;-81
2022/05/15 03:34:20;;;;;;;3.10;2.17;;;11.30;99.90;;;;;;5070851;28;20418;-81
2022/05/15 03:36:48;;;;;;;5.17;2.30;;;11.30;99.90;;;;;;5052865;28;20853;-80
2022/05/15 03:39:15;;;;;;;5.17;2.33;;;11.30;99.90;;;;;;5070788;28;20427;-81
2022/05/15 03:41:41;;;;;;;4.10;2.27;;;11.30;99.90;;;;;;5070629;28;20473;-81
2022/05/15 03:44:08;;;;;;;4.63;2.10;;;11.30;99.90;;;;;;5052532;28;20442;-81
2022/05/15 03:46:35;;;;;;;6.30;2.80;;;11.20;99.90;;;;;;5070952;28;20427;-81
2022/05/15 03:49:01;;;;;;;5.10;2.13;;;11.10;99.90;;;;;;5070686;28;20534;-81
2022/05/15 03:51:26;;;;;;;2.60;2.10;;;11.20;99.90;;;;;;5052224;28;21043;-81
2022/05/15 03:53:53;;;;;;;3.43;2.87;;;11.10;99.90;;;;;;5052795;28;20691;-81
2022/05/15 03:56:49;;;;;;;5.30;2.40;;;11.00;99.90;;;;;;5052687;28;20470;-81
2022/05/15 03:59:06;;;;;;;4.17;2.33;;;10.90;99.90;;;;;;5070881;28;20428;-81
2022/05/15 04:01:32;;;;;;;2.80;2.13;;;11.00;99.90;;;;;;5054992;28;20445;-81
2022/05/15 04:03:59;;;;;;;4.37;2.30;;;11.00;99.90;;;;;;5054905;28;20875;-81
2022/05/15 04:06:25;;;;;;;6.00;2.20;;;11.00;99.90;;;;;;5054957;28;20216;-82
2022/05/15 04:08:51;;;;;;;11.20;2.23;;;11.10;99.90;;;;;;5053504;28;20423;-81
2022/05/15 04:11:17;;;;;;;5.20;2.43;;;11.20;99.90;;;;;;5070921;28;20471;-81
2022/05/15 04:13:44;;;;;;;2.23;1.97;;;11.20;99.90;;;;;;5052765;28;20465;-81
2022/05/15 04:16:10;;;;;;;4.13;2.17;;;11.20;99.90;;;;;;5070591;28;20423;-81
2022/05/15 04:18:36;;;;;;;6.63;2.40;;;11.20;99.90;;;;;;5052820;28;20477;-81
2022/05/15 04:21:02;;;;;;;2.10;1.90;;;11.20;99.90;;;;;;5072728;28;20533;-81
2022/05/15 04:23:28;;;;;;;5.37;2.40;;;11.30;99.90;;;;;;5069909;28;20563;-80
2022/05/15 04:25:53;;;;;;;4.73;2.10;;;11.30;99.90;;;;;;5051685;28;20431;-81
2022/05/15 04:28:19;;;;;;;4.43;2.57;;;11.50;99.90;;;;;;5051768;28;20185;-81
2022/05/15 04:30:44;;;;;;;8.97;2.50;;;11.30;99.90;;;;;;5051391;28;20234;-80
2022/05/15 04:33:10;;;;;;;12.93;2.50;;;11.30;99.90;;;;;;5051694;28;20205;-81
2022/05/15 04:35:36;;;;;;;7.40;2.50;;;11.50;99.90;;;;;;5051567;28;20216;-81
2022/05/15 04:38:01;;;;;;;4.80;2.03;;;11.50;99.90;;;;;;5051616;28;20183;-80
2022/05/15 04:40:27;;;;;;;4.13;2.17;;;11.60;99.90;;;;;;5051076;28;20323;-81
2022/05/15 04:42:52;;;;;;;4.03;2.60;;;11.70;99.90;;;;;;5051155;28;20632;-81
2022/05/15 04:45:18;;;;;;;9.17;2.60;;;12.00;99.90;;;;;;5051646;28;20186;-82
2022/05/15 04:47:45;;;;;;;3.10;2.10;;;11.90;99.90;;;;;;5069675;28;20180;-81
2022/05/15 04:50:11;;;;;;;3.37;3.07;;;11.90;99.90;;;;;;5051171;28;20426;-81
2022/05/15 04:52:37;;;;;;;2.80;2.23;;;11.90;99.90;;;;;;5051233;28;20487;-81
2022/05/15 04:55:03;;;;;;;6.23;2.40;;;12.00;99.90;;;;;;5035014;28;20831;-81
2022/05/15 04:57:29;;;;;;;5.40;2.87;;;12.00;99.90;;;;;;5051651;28;20181;-82
2022/05/15 04:59:54;;;;;;;3.17;2.20;;;12.20;99.90;;;;;;5035046;28;20940;-81
2022/05/15 05:02:20;;;;;;;2.43;2.20;;;12.30;99.90;;;;;;5069558;28;20264;-81
2022/05/15 05:04:46;;;;;;;2.43;2.23;;;12.50;99.90;;;;;;5069606;28;20538;-82
2022/05/15 05:07:11;;;;;;;3.43;1.70;;;12.60;99.90;;;;;;5035108;28;20241;-81
2022/05/15 05:09:37;;;;;;;5.00;2.47;;;12.60;99.90;;;;;;5069396;28;20188;-81
2022/05/15 05:12:03;;;;;;;5.83;3.30;;;12.60;99.90;;;;;;5069526;28;20223;-81
2022/05/15 05:14:29;;;;;;;3.73;2.20;;;12.60;99.90;;;;;;5069591;28;20209;-81
2022/05/15 05:16:54;;;;;;;6.73;2.50;;;12.70;99.90;;;;;;5034543;28;20427;-81
2022/05/15 05:19:20;;;;;;;3.47;2.30;;;12.80;99.90;;;;;;5051111;28;20204;-81
2022/05/15 05:21:46;;;;;;;7.93;2.63;;;13.00;99.90;;;;;;5051170;28;20202;-81
2022/05/15 05:24:11;;;;;;;2.03;1.83;;;13.10;99.90;;;;;;5051031;28;20354;-81
2022/05/15 05:26:37;;;;;;;7.70;2.43;;;13.30;99.90;;;;;;5069124;28;20252;-81
2022/05/15 05:29:03;;;;;;;11.40;2.77;;;13.50;99.90;;;;;;5050936;28;20187;-81
2022/05/15 05:31:29;;;;;;;3.10;2.40;;;13.60;99.90;;;;;;5050646;28;20717;-81
2022/05/15 05:33:55;;;;;;;6.73;2.13;;;13.70;99.90;;;;;;5068911;28;20449;-81
2022/05/15 05:36:20;;;;;;;2.40;2.07;;;13.70;99.90;;;;;;5068837;28;20180;-81
2022/05/15 05:38:46;;;;;;;6.73;3.10;;;13.90;99.90;;;;;;5050432;28;21031;-81
2022/05/15 05:41:12;;;;;;;4.97;2.57;;;14.00;99.90;;;;;;5050600;28;20175;-81
2022/05/15 05:43:38;;;;;;;29.30;3.10;;;14.00;99.90;;;;;;5068444;28;20205;-81
2022/05/15 05:46:04;;;;;;;6.30;2.60;;;14.20;99.90;;;;;;5050402;28;20425;-81
2022/05/15 05:48:30;;;;;;;3.60;2.07;;;14.30;99.90;;;;;;5068793;28;20569;-81
2022/05/15 05:50:55;;;;;;;5.97;3.03;;;14.50;99.90;;;;;;5050438;28;20206;-81
2022/05/15 05:53:21;;;;;;;4.37;2.10;;;14.60;99.90;;;;;;5072173;28;20441;-81
2022/05/15 05:55:46;;;;;;;8.40;2.30;;;14.70;99.90;;;;;;5073764;28;20190;-81
2022/05/15 05:58:12;;;;;;;9.90;2.67;;;14.90;99.90;;;;;;5055334;28;20260;-82
2022/05/15 06:00:38;;;;;;;5.93;2.60;;;15.20;99.90;;;;;;5055168;28;20184;-81
2022/05/15 06:05:49;;;;;;;6.07;3.57;;;15.50;99.90;;;;;;5073822;28;20433;-81
2022/05/15 06:08:15;;;;;;;11.50;4.30;;;15.60;99.90;;;;;;5073344;28;20902;-81
2022/05/15 06:10:42;;;;;;;18.13;4.80;;;15.80;99.90;;;;;;5072756;28;20210;-81
2022/05/15 06:13:08;;;;;;;9.03;4.27;;;16.00;99.90;;;;;;5073005;28;20473;-82
2022/05/15 06:15:35;;;;;;;7.70;3.73;;;16.10;99.90;;;;;;5073205;28;20419;-81
2022/05/15 06:18:02;;;;;;;4.60;2.33;;;16.30;99.90;;;;;;5073174;28;20949;-81
2022/05/15 06:20:28;;;;;;;6.13;2.57;;;16.40;99.90;;;;;;5073682;28;20459;-81
2022/05/15 06:22:54;;;;;;;7.60;3.10;;;16.60;99.90;;;;;;5055715;28;20566;-82
2022/05/15 06:25:20;;;;;;;3.93;2.50;;;16.60;99.90;;;;;;5073520;28;20934;-82
2022/05/15 06:27:45;;;;;;;3.90;2.43;;;16.70;99.90;;;;;;5038746;28;20616;-82
2022/05/15 06:30:15;;;;;;;6.80;2.90;;;16.80;99.90;;;;;;5055445;28;20420;-82
2022/05/15 06:32:40;;;;;;;4.07;2.77;;;16.90;99.90;;;;;;5073235;28;20203;-82
2022/05/15 06:35:07;;;;;;;4.23;2.70;;;17.00;99.90;;;;;;5038821;28;20418;-82
2022/05/15 06:37:33;;;;;;;3.53;2.43;;;17.10;99.90;;;;;;5072933;28;20178;-81
2022/05/15 06:39:59;;;;;;;6.30;2.07;;;17.10;99.90;;;;;;5054690;28;20499;-81
2022/05/15 06:42:28;;;;;;;4.70;2.30;;;17.20;99.90;;;;;;5037735;28;20502;-81
2022/05/15 06:44:54;;;;;;;6.90;2.37;;;17.30;98.60;;;;;;5072535;28;20234;-82
2022/05/15 06:47:20;;;;;;;5.40;3.00;;;17.30;97.40;;;;;;5037714;28;20428;-81
2022/05/15 06:49:46;;;;;;;4.60;2.43;;;17.30;98.80;;;;;;5072599;28;20809;-82
2022/05/15 06:52:12;;;;;;;5.20;2.27;;;17.50;98.30;;;;;;5054320;28;21120;-81
2022/05/15 06:54:37;;;;;;;5.90;2.10;;;17.70;99.50;;;;;;5072184;28;20201;-82
2022/05/15 06:59:47;;;;;;;4.87;2.10;;;17.80;99.10;;;;;;5072694;28;20166;-82
2022/05/15 07:02:13;;;;;;;6.53;2.10;;;17.90;99.20;;;;;;5037258;28;20451;-81
2022/05/15 07:04:39;;;;;;;3.97;2.30;;;18.00;97.90;;;;;;5053960;28;20190;-82
2022/05/15 07:07:05;;;;;;;4.03;1.80;;;18.10;99.40;;;;;;5037413;28;20200;-82
2022/05/15 07:09:31;;;;;;;1.87;1.77;;;18.20;99.90;;;;;;5037207;28;20740;-81
2022/05/15 07:11:57;;;;;;;3.33;1.70;;;18.30;99.90;;;;;;5053825;28;20472;-81
2022/05/15 07:14:23;;;;;;;6.00;2.30;;;18.30;99.90;;;;;;5071747;28;20716;-82
2022/05/15 07:16:49;;;;;;;5.90;1.80;;;18.40;99.90;;;;;;5053556;28;20500;-81
2022/05/15 07:19:15;;;;;;;6.43;2.10;;;18.40;99.90;;;;;;5071775;28;20252;-82
2022/05/15 07:21:41;;;;;;;6.40;2.23;;;18.50;99.90;;;;;;5071707;28;20544;-82
2022/05/15 07:24:07;;;;;;;9.10;2.27;;;18.40;99.90;;;;;;5071362;28;20186;-81
2022/05/15 07:26:34;;;;;;;3.10;1.90;;;18.40;99.90;;;;;;5053532;28;20421;-81
2022/05/15 07:28:59;;;;;;;6.10;2.30;;;18.50;99.90;;;;;;5036893;28;20453;-81
2022/05/15 07:31:25;;;;;;;5.60;2.60;;;18.50;99.90;;;;;;5053510;28;20989;-82
2022/05/15 07:33:51;;;;;;;4.37;2.37;;;18.60;99.90;;;;;;5071331;28;20329;-81
2022/05/15 07:36:17;;;;;;;4.23;1.70;;;18.70;99.90;;;;;;5053377;28;20184;-81
2022/05/15 07:38:43;;;;;;;5.20;2.50;;;18.70;99.90;;;;;;5071284;28;20232;-81
2022/05/15 07:41:09;;;;;;;3.27;2.17;;;18.90;99.90;;;;;;5053017;28;20408;-81
2022/05/15 07:43:35;;;;;;;3.00;1.77;;;18.90;99.90;;;;;;5071152;28;21322;-81
2022/05/15 07:46:01;;;;;;;5.20;2.63;;;18.90;99.90;;;;;;5071080;28;21272;-82
2022/05/15 07:48:26;;;;;;;2.60;2.40;;;19.00;99.90;;;;;;5071164;28;20421;-81
2022/05/15 07:50:55;;;;;;;7.43;2.57;;;19.00;99.90;;;;;;5036563;28;20207;-82
2022/05/15 07:53:21;;;;;;;3.17;2.17;;;19.10;99.90;;;;;;5071242;28;20206;-82
2022/05/15 07:55:46;;;;;;;4.23;2.10;;;19.10;99.90;;;;;;5053011;28;20431;-81
2022/05/15 07:58:12;;;;;;;7.83;3.20;;;19.10;99.90;;;;;;5052974;28;20271;-81
2022/05/15 08:00:38;;;;;;;9.40;2.97;;;19.20;99.90;;;;;;5052808;28;20190;-81
2022/05/15 08:03:09;;;;;;;10.13;3.10;;;19.20;99.90;;;;;;5052889;28;20233;-81
2022/05/15 08:08:21;;;;;;;4.57;2.80;;;19.40;99.90;;;;;;5056127;28;20428;-81
2022/05/15 08:10:47;;;;;;;14.37;2.63;;;19.40;99.90;;;;;;5052365;28;21067;-81
2022/05/15 08:13:16;;;;;;;5.93;2.70;;;19.50;99.90;;;;;;5052376;28;20437;-81
2022/05/15 08:15:42;;;;;;;3.47;3.17;;;19.70;99.90;;;;;;5051523;28;20423;-81
2022/05/15 08:23:50;;;;;;;5.37;2.37;;;20.10;99.90;;;;;;5070646;28;20425;-81
2022/05/15 08:26:17;;;;;;;5.60;2.90;;;20.30;99.90;;;;;;5052109;28;20892;-81
2022/05/15 08:28:43;;;;;;;4.40;2.83;;;20.40;99.90;;;;;;5069979;28;20425;-81
2022/05/15 08:31:09;;;;;;;4.97;2.37;;;20.50;99.90;;;;;;5070037;28;20464;-81
2022/05/15 08:33:37;;;;;;;5.57;2.20;;;20.70;99.90;;;;;;5052106;28;20415;-81
2022/05/15 08:36:04;;;;;;;7.40;2.60;;;20.80;99.90;;;;;;5052279;28;20608;-82
2022/05/15 08:38:31;;;;;;;4.67;2.50;;;21.10;99.90;;;;;;5070476;28;20420;-81
2022/05/15 08:41:00;;;;;;;2.57;1.73;;;21.10;99.90;;;;;;5053547;28;20811;-81
2022/05/15 08:43:59;;;;;;;5.10;2.80;;;21.40;99.90;;;;;;5053021;28;20468;-81
2022/05/15 08:46:37;;;;;;;6.07;3.13;;;21.60;99.90;;;;;;5053335;28;20908;-81
2022/05/15 08:49:11;;;;;;;5.93;2.30;;;21.90;99.90;;;;;;5053082;28;20425;-81
2022/05/15 08:51:42;;;;;;;6.70;2.60;;;22.10;99.90;;;;;;5053191;28;21085;-81
2022/05/15 08:54:10;;;;;;;6.37;2.77;;;22.30;99.90;;;;;;5071277;28;20400;-82
2022/05/15 08:56:45;;;;;;;6.20;2.80;;;22.40;98.30;;;;;;5071490;28;20494;-81
2022/05/15 08:59:27;;;;;;;6.40;2.70;;;22.60;99.90;;;;;;5071341;28;21074;-81
2022/05/15 09:01:56;;;;;;;7.80;2.60;;;22.80;99.30;;;;;;5052966;28;20852;-81
2022/05/15 09:04:23;;;;;;;3.90;2.03;;;23.00;97.40;;;;;;5052952;28;20564;-81
2022/05/15 09:07:01;;;;;;;4.40;2.47;;;23.30;97.80;;;;;;5070892;28;20413;-81
2022/05/15 09:09:36;;;;;;;5.23;2.40;;;23.40;96.70;;;;;;5053195;28;20429;-81
2022/05/15 09:12:23;;;;;;;4.43;2.17;;;23.70;97.50;;;;;;5054237;28;20529;-82
2022/05/15 09:15:04;;;;;;;4.53;2.40;;;24.00;97.40;;;;;;5053443;28;20446;-80
2022/05/15 09:17:34;;;;;;;4.07;2.00;;;24.30;96.10;;;;;;5070281;28;20476;-80
2022/05/15 09:20:08;;;;;;;4.07;2.23;;;24.40;95.00;;;;;;5069932;28;20422;-80
2022/05/15 09:22:39;;;;;;;5.13;1.87;;;24.70;95.30;;;;;;5069971;28;20958;-80
2022/05/15 09:25:23;;;;;;;4.40;1.90;;;24.90;94.20;;;;;;5052986;28;20416;-80
2022/05/15 09:28:07;;;;;;;7.13;2.43;;;25.30;92.90;;;;;;5070446;28;20419;-80
2022/05/15 09:30:36;;;;;;;5.60;1.87;;;25.60;93.50;;;;;;5035498;28;20431;-80
2022/05/15 09:33:02;;;;;;;5.90;2.13;;;25.80;92.00;;;;;;5069794;28;20430;-80
2022/05/15 09:35:35;;;;;;;4.87;2.00;;;26.00;90.50;;;;;;5069517;28;20443;-80
2022/05/15 09:43:39;;;;;;;4.53;2.10;;;26.40;87.10;;;;;;5069431;28;20450;-80
2022/05/15 09:46:18;;;;;;;3.63;1.93;;;26.70;86.00;;;;;;5069265;28;20417;-80
2022/05/15 09:49:03;;;;;;;4.73;2.40;;;27.00;83.90;;;;;;5069734;28;20506;-80
2022/05/15 09:51:54;;;;;;;4.23;1.67;;;27.10;81.60;;;;;;5069293;28;20480;-80
2022/05/15 09:54:33;;;;;;;4.80;1.70;;;27.20;81.50;;;;;;5070448;28;20460;-81
2022/05/15 09:57:20;;;;;;;5.00;1.77;;;27.30;76.80;;;;;;5069656;28;20465;-81
2022/05/15 09:59:58;;;;;;;3.30;1.73;;;27.50;75.80;;;;;;5069729;28;20981;-81
2022/05/15 10:02:42;;;;;;;2.57;1.70;;;27.60;77.30;;;;;;5069857;28;20439;-80
2022/05/15 10:05:29;;;;;;;3.57;1.83;;;27.80;75.60;;;;;;5070426;28;20410;-80
2022/05/15 10:08:00;;;;;;;7.03;2.03;;;28.00;73.10;;;;;;5069947;28;20424;-81
2022/05/15 10:10:34;;;;;;;8.60;2.40;;;28.20;74.30;;;;;;5069725;28;20527;-80
2022/05/15 10:13:26;;;;;;;6.47;1.80;;;28.50;71.30;;;;;;5069562;28;20945;-80
2022/05/15 10:15:58;;;;;;;5.23;2.20;;;28.60;68.30;;;;;;5069701;28;20933;-80
2022/05/15 10:18:30;;;;;;;7.63;2.27;;;28.80;67.20;;;;;;5051600;28;20425;-80
2022/05/15 10:20:57;;;;;;;5.43;1.83;;;28.70;68.50;;;;;;5051449;28;20938;-80
2022/05/15 10:23:29;;;;;;;5.60;1.87;;;28.90;69.60;;;;;;5070042;28;20800;-79
2022/05/15 10:25:59;;;;;;;4.83;1.70;;;29.10;64.80;;;;;;5069634;28;20453;-80
2022/05/15 10:28:59;;;;;;;5.03;1.80;;;29.10;65.60;;;;;;5069887;28;20490;-80
2022/05/15 10:31:25;;;;;;;4.50;1.73;;;29.20;65.60;;;;;;5069583;28;20472;-80
2022/05/15 10:33:58;;;;;;;4.60;1.73;;;29.20;63.50;;;;;;5069771;28;20494;-80
2022/05/15 10:36:27;;;;;;;3.53;1.30;;;29.10;62.00;;;;;;5034978;28;20186;-80
2022/05/15 10:39:11;;;;;;;4.57;2.13;;;29.20;62.10;;;;;;5071988;28;20435;-80
2022/05/15 10:42:13;;;;;;;6.93;4.23;;;29.20;61.00;;;;;;5073612;28;20828;-80
2022/05/15 10:45:08;;;;;;;4.53;1.70;;;29.60;59.70;;;;;;5073609;28;20835;-80
2022/05/15 10:47:57;;;;;;;1.83;1.60;;;29.70;59.50;;;;;;5054911;28;20444;-79
2022/05/15 10:50:30;;;;;;;2.40;1.50;;;29.70;58.10;;;;;;5059321;28;20820;-80
2022/05/15 10:59:53;;;;;;;4.03;1.73;;;29.90;55.70;;;;;;5071905;28;20783;-80
2022/05/15 11:02:32;;;;;;;2.90;1.90;;;29.50;54.40;;;;;;5071776;28;20433;-80
2022/05/15 11:05:20;;;;;;;15.20;4.70;;;29.00;53.60;;;;;;5071724;28;20413;-81
2022/05/15 11:07:54;;;;;;;9.50;1.80;;;29.10;54.80;;;;;;5071328;28;20471;-80
2022/05/15 11:10:30;;;;;;;5.57;1.73;;;29.40;56.70;;;;;;5071496;28;20411;-80
2022/05/15 11:13:01;;;;;;;4.43;2.30;;;29.70;55.30;;;;;;5053218;28;20498;-79
2022/05/15 11:15:54;;;;;;;6.30;1.80;;;29.50;52.60;;;;;;5053097;28;20844;-80
2022/05/15 11:18:57;;;;;;;3.50;1.93;;;29.60;52.90;;;;;;5071182;28;20414;-80
2022/05/15 11:21:34;;;;;;;3.70;1.90;;;29.70;52.40;;;;;;5070838;28;20443;-80
2022/05/15 11:24:19;;;;;;;2.33;1.43;;;30.00;55.30;;;;;;5073892;28;20445;-80
2022/05/15 11:26:49;;;;;;;3.73;1.70;;;30.10;53.90;;;;;;5056298;28;20421;-80
2022/05/15 11:29:18;;;;;;;4.03;1.53;;;30.10;54.70;;;;;;5055361;28;20775;-80
2022/05/15 11:31:53;;;;;;;3.60;1.77;;;29.90;51.90;;;;;;5054544;28;20552;-80
2022/05/15 11:34:19;;;;;;;3.60;1.57;;;30.00;52.10;;;;;;5055178;28;20409;-80
2022/05/15 11:36:48;;;;;;;5.80;1.70;;;29.70;50.20;;;;;;5072166;28;20424;-80
2022/05/15 11:39:13;;;;;;;3.37;1.53;;;29.60;51.10;;;;;;5054377;28;20512;-80
2022/05/15 11:42:09;;;;;;;2.70;1.90;;;29.80;53.70;;;;;;5054081;28;20974;-80
2022/05/15 11:44:41;;;;;;;3.80;1.87;;;30.00;54.60;;;;;;5072219;28;20236;-80
2022/05/15 11:47:17;;;;;;;3.23;1.60;;;30.20;53.30;;;;;;5054011;28;20933;-79
2022/05/15 11:50:03;;;;;;;3.23;1.90;;;30.20;52.00;;;;;;5071474;28;21072;-80
2022/05/15 11:53:02;;;;;;;2.33;1.63;;;30.10;53.90;;;;;;5053565;28;20484;-80
2022/05/15 11:55:45;;;;;;;3.13;1.50;;;29.50;50.30;;;;;;5057824;28;20524;-80
2022/05/15 11:58:27;;;;;;;2.33;1.70;;;29.60;52.30;;;;;;5071674;28;20410;-80
2022/05/15 12:01:10;;;;;;;3.77;1.77;;;29.70;54.10;;;;;;5053228;28;20459;-80
2022/05/15 12:03:38;;;;;;;6.30;1.60;;;29.90;51.70;;;;;;5053902;28;20425;-80
2022/05/15 12:06:10;;;;;;;3.00;1.40;;;29.70;52.30;;;;;;5053641;28;20435;-79
2022/05/15 12:08:38;;;;;;;5.80;1.70;;;29.90;52.50;;;;;;5053624;28;20425;-80
2022/05/15 12:11:18;;;;;;;4.60;1.50;;;29.50;52.10;;;;;;5037551;28;20468;-80
2022/05/15 12:13:46;;;;;;;5.57;2.10;;;29.90;51.60;;;;;;5071790;28;20426;-80
2022/05/15 12:16:29;;;;;;;2.37;1.50;;;29.80;50.30;;;;;;5053808;28;20418;-80
2022/05/15 12:19:20;;;;;;;3.20;1.30;;;30.00;50.40;;;;;;5072261;28;20557;-80
2022/05/15 12:21:50;;;;;;;2.80;1.50;;;30.20;51.80;;;;;;5071705;28;20468;-80
2022/05/15 12:24:27;;;;;;;2.23;1.30;;;30.40;51.90;;;;;;5072268;28;20406;-80
2022/05/15 12:27:23;;;;;;;2.23;2.00;;;30.70;54.70;;;;;;5053563;28;20432;-80
2022/05/15 12:30:03;;;;;;;3.47;1.40;;;30.20;49.00;;;;;;5053802;28;20516;-80
2022/05/15 12:32:38;;;;;;;3.73;1.53;;;30.40;50.40;;;;;;5071691;28;20490;-80
2022/05/15 12:35:10;;;;;;;3.97;1.87;;;30.00;51.10;;;;;;5053364;28;20458;-80
2022/05/15 12:37:52;;;;;;;5.37;1.87;;;30.40;51.60;;;;;;5071891;28;20424;-80
2022/05/15 12:40:46;;;;;;;3.40;1.80;;;30.80;51.60;;;;;;5071127;28;20413;-80
2022/05/15 12:43:55;;;;;;;4.37;1.60;;;30.60;48.70;;;;;;5039611;28;20465;-80
2022/05/15 12:46:33;;;;;;;3.63;1.63;;;30.60;48.00;;;;;;5047509;28;20435;-80
2022/05/15 12:48:59;;;;;;;2.30;1.70;;;30.00;47.80;;;;;;5053209;28;20436;-80
2022/05/15 12:51:45;;;;;;;2.50;1.33;;;29.40;47.60;;;;;;5052837;28;20484;-80
2022/05/15 12:54:28;;;;;;;4.23;1.93;;;29.70;50.20;;;;;;5051823;28;20954;-80
2022/05/15 12:57:03;;;;;;;7.80;1.57;;;29.90;50.20;;;;;;5070398;28;20424;-79
2022/05/15 12:59:35;;;;;;;4.30;1.40;;;29.90;48.90;;;;;;5070358;28;20895;-80
2022/05/15 13:02:33;;;;;;;2.10;1.27;;;30.20;50.10;;;;;;5070036;28;20942;-79
2022/05/15 13:05:01;;;;;;;1.60;1.40;;;30.50;49.60;;;;;;5070075;28;20430;-80
2022/05/15 13:07:30;;;;;;;2.03;1.47;;;30.40;48.60;;;;;;5070503;28;20502;-80
2022/05/15 13:10:13;;;;;;;3.30;1.70;;;30.50;49.70;;;;;;5070859;28;20431;-80
2022/05/15 13:12:52;;;;;;;3.00;1.53;;;30.20;47.80;;;;;;5052165;28;20464;-80
2022/05/15 13:15:23;;;;;;;4.10;1.83;;;30.20;48.40;;;;;;5052068;28;20478;-79
2022/05/15 13:17:50;;;;;;;3.90;1.60;;;30.10;48.60;;;;;;5070736;28;20433;-80
2022/05/15 13:20:20;;;;;;;2.60;1.37;;;30.00;47.70;;;;;;5052502;28;20423;-80
2022/05/15 13:22:47;;;;;;;6.80;1.50;;;30.10;48.00;;;;;;5070223;28;20803;-80
2022/05/15 13:25:33;;;;;;;5.87;1.60;;;29.90;46.60;;;;;;5070489;28;20425;-80
2022/05/15 13:28:00;;;;;;;3.37;1.43;;;30.20;48.10;;;;;;5070139;28;20500;-80
2022/05/15 13:30:28;;;;;;;9.40;1.93;;;29.90;47.10;;;;;;5052007;28;21262;-80